Time;durP1;ratioP1;P1;durP2;ratioP2;P2;SDS_P1;SDS_P2;PMS_P1;PMS_P2;Temp;Humidity;BMP_temperature;BMP_pressure;BME280_temperature;BME280_humidity;BME280_pressure;Samples;Min_cycle;Max_cycle;Signal;HPM_P1;HPM_P2
2022/07/08 00:01:33;;;;;;;18.08;2.22;;;14.50;99.90;;;;;;5021365;28;20054;-74
2022/07/08 00:04:00;;;;;;;18.15;2.17;;;14.50;99.90;;;;;;5019414;28;20481;-73
2022/07/08 00:06:26;;;;;;;14.40;1.80;;;14.40;99.90;;;;;;5018200;28;20041;-73
2022/07/08 00:08:52;;;;;;;14.88;2.28;;;14.40;99.90;;;;;;5019660;28;20549;-76
2022/07/08 00:11:17;;;;;;;11.98;2.00;;;14.40;99.90;;;;;;5019542;28;20052;-75
2022/07/08 00:13:43;;;;;;;13.85;2.10;;;14.40;99.90;;;;;;5019545;28;20050;-76
2022/07/08 00:16:09;;;;;;;13.68;2.17;;;14.40;99.90;;;;;;5004660;28;20116;-75
2022/07/08 00:18:35;;;;;;;11.65;2.25;;;14.40;99.90;;;;;;5020520;28;20042;-75
2022/07/08 00:21:01;;;;;;;12.57;2.17;;;14.40;99.90;;;;;;5021408;28;20116;-76
2022/07/08 00:23:26;;;;;;;12.88;2.63;;;14.30;99.90;;;;;;5019692;28;20038;-74
2022/07/08 00:25:52;;;;;;;10.93;2.08;;;14.40;99.90;;;;;;5016737;28;20454;-74
2022/07/08 00:28:18;;;;;;;16.65;1.90;;;14.40;99.90;;;;;;5018835;28;20045;-74
2022/07/08 00:30:44;;;;;;;12.10;2.30;;;14.30;99.90;;;;;;5019813;28;20050;-77
2022/07/08 00:33:10;;;;;;;16.88;2.55;;;14.30;99.90;;;;;;5035818;28;20054;-74
2022/07/08 00:35:35;;;;;;;15.32;1.95;;;14.30;99.90;;;;;;5001211;28;20042;-75
2022/07/08 00:38:01;;;;;;;19.92;2.35;;;14.30;99.90;;;;;;5017927;28;20046;-74
2022/07/08 00:40:27;;;;;;;14.68;2.15;;;14.30;99.90;;;;;;5017208;28;20049;-75
2022/07/08 00:42:53;;;;;;;17.60;2.10;;;14.20;99.90;;;;;;5018571;28;20134;-84
2022/07/08 00:45:18;;;;;;;20.88;2.45;;;14.20;99.90;;;;;;5017336;28;20049;-74
2022/07/08 00:47:45;;;;;;;13.10;1.65;;;14.20;99.90;;;;;;5017019;28;20049;-75
2022/07/08 00:50:11;;;;;;;8.40;1.60;;;14.20;99.90;;;;;;5018195;28;20160;-76
2022/07/08 00:52:39;;;;;;;11.68;1.77;;;14.20;99.90;;;;;;5018565;28;20050;-76
2022/07/08 00:55:07;;;;;;;12.00;1.63;;;14.30;99.90;;;;;;5017535;28;20088;-73
2022/07/08 00:57:34;;;;;;;10.32;1.90;;;14.30;99.90;;;;;;5018874;28;20049;-74
2022/07/08 01:00:00;;;;;;;14.35;2.10;;;14.30;99.90;;;;;;5018369;28;20074;-74
2022/07/08 01:02:26;;;;;;;15.63;1.40;;;14.30;99.90;;;;;;5017900;28;20096;-74
2022/07/08 01:04:52;;;;;;;12.02;1.73;;;14.30;99.90;;;;;;5018070;28;20050;-76
2022/07/08 01:07:19;;;;;;;13.05;2.15;;;14.20;99.90;;;;;;5017640;28;20046;-77
2022/07/08 01:09:44;;;;;;;12.75;2.13;;;14.20;99.90;;;;;;5018584;28;20122;-75
2022/07/08 01:12:11;;;;;;;17.85;2.20;;;14.20;99.90;;;;;;5016810;28;20136;-73
2022/07/08 01:14:37;;;;;;;15.73;1.60;;;14.20;99.90;;;;;;5017996;28;20060;-74
2022/07/08 01:17:03;;;;;;;15.20;2.08;;;14.20;99.90;;;;;;5020979;28;20050;-74
2022/07/08 01:19:29;;;;;;;13.63;2.00;;;14.10;99.90;;;;;;5004153;28;20089;-75
2022/07/08 01:21:55;;;;;;;12.67;1.90;;;14.10;99.90;;;;;;5004568;28;20049;-75
2022/07/08 01:24:21;;;;;;;8.23;1.90;;;14.10;99.90;;;;;;5007009;28;20061;-75
2022/07/08 01:26:47;;;;;;;18.47;2.73;;;14.10;99.90;;;;;;5040132;28;20060;-76
2022/07/08 01:29:14;;;;;;;13.82;1.98;;;14.10;99.90;;;;;;5023142;28;20053;-74
2022/07/08 01:31:40;;;;;;;9.85;2.03;;;14.10;99.90;;;;;;5041908;28;20045;-79
2022/07/08 01:34:06;;;;;;;9.50;1.70;;;14.00;99.90;;;;;;5041831;28;20444;-74
2022/07/08 01:36:32;;;;;;;16.67;2.25;;;14.00;99.90;;;;;;5021841;28;20041;-74
2022/07/08 01:38:58;;;;;;;11.75;2.03;;;14.00;99.90;;;;;;5022658;28;20545;-74
2022/07/08 01:41:24;;;;;;;13.07;2.03;;;14.00;99.90;;;;;;5038813;28;20072;-75
2022/07/08 01:43:50;;;;;;;16.15;2.00;;;14.00;99.90;;;;;;5019546;28;20120;-75
2022/07/08 01:46:16;;;;;;;12.30;2.03;;;13.90;99.90;;;;;;5035575;28;20056;-74
2022/07/08 01:48:42;;;;;;;13.40;2.22;;;13.90;99.90;;;;;;5035781;28;20346;-75
2022/07/08 01:51:08;;;;;;;10.93;1.95;;;13.90;99.90;;;;;;5018872;28;20046;-75
2022/07/08 01:53:33;;;;;;;16.80;2.42;;;13.80;99.90;;;;;;5017967;28;20140;-73
2022/07/08 01:56:00;;;;;;;12.48;2.33;;;13.80;99.90;;;;;;5017035;28;20063;-78
2022/07/08 01:58:26;;;;;;;14.43;2.03;;;13.70;99.90;;;;;;4999809;28;20445;-75
2022/07/08 02:00:51;;;;;;;15.57;2.28;;;13.60;99.90;;;;;;5033691;28;20120;-75
2022/07/08 02:03:17;;;;;;;12.48;1.88;;;13.50;99.90;;;;;;5033123;28;20116;-75
2022/07/08 02:05:43;;;;;;;12.98;2.20;;;13.50;99.90;;;;;;5015712;28;20091;-78
2022/07/08 02:08:09;;;;;;;12.35;1.90;;;13.40;99.90;;;;;;5015239;28;20049;-75
2022/07/08 02:13:19;;;;;;;13.55;1.92;;;13.20;99.90;;;;;;5015157;28;20065;-76
2022/07/08 02:15:45;;;;;;;16.08;2.42;;;13.10;99.90;;;;;;5033332;28;20100;-74
2022/07/08 02:18:11;;;;;;;13.27;2.08;;;13.00;99.90;;;;;;5015451;28;20458;-74
2022/07/08 02:20:37;;;;;;;14.48;2.20;;;13.00;99.90;;;;;;5015582;28;20049;-74
2022/07/08 02:23:03;;;;;;;18.85;2.53;;;12.90;99.90;;;;;;5033274;28;20049;-74
2022/07/08 02:25:29;;;;;;;16.85;2.40;;;12.90;99.90;;;;;;5014783;28;20102;-73
2022/07/08 02:27:55;;;;;;;9.65;2.08;;;12.80;99.90;;;;;;5015749;28;20049;-73
2022/07/08 02:30:20;;;;;;;12.68;2.20;;;12.80;99.90;;;;;;4998390;28;20060;-76
2022/07/08 02:32:46;;;;;;;10.15;2.00;;;12.80;99.90;;;;;;5032293;28;20128;-74
2022/07/08 02:35:12;;;;;;;14.60;2.78;;;12.80;99.90;;;;;;5033170;28;20442;-74
2022/07/08 02:37:38;;;;;;;15.50;2.30;;;12.70;99.90;;;;;;5032370;28;20496;-75
2022/07/08 02:40:04;;;;;;;18.17;2.50;;;12.70;99.90;;;;;;5014735;28;20056;-76
2022/07/08 02:42:30;;;;;;;21.48;2.58;;;12.70;99.90;;;;;;5014805;28;20053;-75
2022/07/08 02:44:56;;;;;;;13.85;2.70;;;12.60;99.90;;;;;;5014701;28;20132;-75
2022/07/08 02:47:21;;;;;;;14.10;2.25;;;12.60;99.90;;;;;;5032589;28;20053;-75
2022/07/08 02:49:47;;;;;;;10.02;2.50;;;12.60;99.90;;;;;;5015103;28;20054;-79
2022/07/08 02:52:13;;;;;;;13.52;2.90;;;12.50;99.90;;;;;;4998783;28;20052;-75
2022/07/08 02:54:39;;;;;;;11.55;2.88;;;12.50;99.90;;;;;;5032052;28;20057;-75
2022/07/08 02:57:05;;;;;;;13.23;2.70;;;12.40;99.90;;;;;;4998360;28;20049;-76
2022/07/08 02:59:30;;;;;;;10.00;2.72;;;12.30;99.90;;;;;;4983864;28;20292;-74
2022/07/08 03:01:56;;;;;;;13.20;2.92;;;12.30;99.90;;;;;;5018916;28;20488;-74
2022/07/08 03:04:22;;;;;;;12.07;2.55;;;12.30;99.90;;;;;;5036456;28;20045;-73
2022/07/08 03:06:48;;;;;;;19.33;3.00;;;12.30;99.90;;;;;;4985908;28;20076;-74
2022/07/08 03:09:14;;;;;;;13.93;2.92;;;12.20;99.90;;;;;;5036577;28;20480;-72
2022/07/08 03:11:39;;;;;;;10.00;2.85;;;12.20;99.90;;;;;;5018533;28;20471;-76
2022/07/08 03:14:05;;;;;;;16.45;2.80;;;12.20;99.90;;;;;;5018517;28;20531;-75
2022/07/08 03:16:31;;;;;;;14.07;2.85;;;12.20;99.90;;;;;;5035846;28;20081;-74
2022/07/08 03:18:57;;;;;;;15.63;2.90;;;12.10;99.90;;;;;;5036095;28;20049;-73
2022/07/08 03:21:23;;;;;;;16.75;2.42;;;12.10;99.90;;;;;;5001884;28;20437;-75
2022/07/08 03:23:49;;;;;;;13.45;2.65;;;12.10;99.90;;;;;;5035867;28;20477;-75
2022/07/08 03:26:16;;;;;;;12.57;2.60;;;12.10;99.90;;;;;;5001216;28;20057;-75
2022/07/08 03:28:42;;;;;;;10.80;2.67;;;12.10;99.90;;;;;;5001940;28;20053;-75
2022/07/08 03:31:07;;;;;;;16.55;2.83;;;12.10;99.90;;;;;;5000943;28;20469;-84
2022/07/08 03:33:33;;;;;;;17.55;3.22;;;12.10;99.90;;;;;;5017874;28;20053;-74
2022/07/08 03:35:59;;;;;;;11.02;2.50;;;12.00;99.90;;;;;;5034305;28;20041;-77
2022/07/08 03:38:25;;;;;;;13.30;2.78;;;12.10;99.90;;;;;;5001265;28;20056;-76
2022/07/08 03:43:35;;;;;;;11.23;2.70;;;12.10;99.90;;;;;;5004698;28;20054;-74
2022/07/08 03:46:00;;;;;;;14.45;2.58;;;12.10;99.90;;;;;;4985397;28;20049;-80
2022/07/08 03:48:26;;;;;;;15.80;2.90;;;12.20;99.90;;;;;;5017409;28;20148;-74
2022/07/08 03:50:52;;;;;;;15.10;3.40;;;12.30;99.90;;;;;;5018447;28;20046;-75
2022/07/08 03:53:17;;;;;;;15.98;2.45;;;12.40;99.90;;;;;;5035626;28;20037;-74
2022/07/08 03:55:43;;;;;;;15.02;2.78;;;12.50;99.90;;;;;;5018301;28;20045;-75
2022/07/08 03:58:09;;;;;;;16.27;2.90;;;12.60;99.90;;;;;;5001167;28;20053;-76
2022/07/08 04:00:35;;;;;;;14.45;2.55;;;12.70;99.90;;;;;;5017427;28;20141;-76
2022/07/08 04:03:00;;;;;;;14.95;2.83;;;12.80;99.90;;;;;;5001829;28;20045;-74
2022/07/08 04:05:26;;;;;;;15.82;3.03;;;12.90;99.90;;;;;;4985200;28;20571;-74
2022/07/08 04:07:52;;;;;;;19.63;2.78;;;12.90;99.90;;;;;;5017739;28;20045;-75
2022/07/08 04:10:18;;;;;;;10.85;2.00;;;13.00;99.90;;;;;;5034899;28;20037;-75
2022/07/08 04:12:43;;;;;;;14.32;2.30;;;13.10;99.90;;;;;;5034299;28;20049;-76
2022/07/08 04:15:09;;;;;;;13.90;3.33;;;13.10;99.90;;;;;;5000867;28;20050;-74
2022/07/08 04:17:35;;;;;;;16.33;2.22;;;13.20;99.90;;;;;;5016067;28;20393;-75
2022/07/08 04:20:01;;;;;;;27.95;3.17;;;13.20;99.90;;;;;;5017079;28;20045;-75
2022/07/08 04:22:27;;;;;;;17.88;2.60;;;13.30;99.90;;;;;;5017182;28;20084;-74
2022/07/08 04:24:52;;;;;;;16.20;2.92;;;13.30;99.90;;;;;;5000935;28;20068;-73
2022/07/08 04:27:18;;;;;;;10.95;2.45;;;13.30;99.90;;;;;;5034811;28;20434;-74
2022/07/08 04:29:44;;;;;;;13.15;2.35;;;13.30;99.90;;;;;;5017849;28;20116;-75
2022/07/08 04:32:10;;;;;;;15.18;2.60;;;13.40;99.90;;;;;;5034599;28;20061;-75
2022/07/08 04:34:35;;;;;;;15.55;2.25;;;13.30;99.90;;;;;;5017473;28;20073;-74
2022/07/08 04:37:01;;;;;;;16.35;2.67;;;13.20;99.90;;;;;;5017272;28;20190;-74
2022/07/08 04:39:27;;;;;;;17.83;2.65;;;13.30;99.90;;;;;;5016582;28;20444;-73
2022/07/08 04:41:52;;;;;;;14.52;2.22;;;13.30;99.90;;;;;;5000229;28;20071;-74
2022/07/08 04:44:18;;;;;;;13.02;2.92;;;13.30;99.90;;;;;;5000580;28;20049;-76
2022/07/08 04:46:44;;;;;;;17.98;2.72;;;13.30;99.90;;;;;;5034139;28;20481;-75
2022/07/08 04:49:10;;;;;;;14.07;2.88;;;13.30;99.90;;;;;;5016965;28;20121;-74
2022/07/08 04:51:36;;;;;;;16.73;3.13;;;13.30;99.90;;;;;;5016821;28;20102;-76
2022/07/08 04:54:02;;;;;;;17.92;3.08;;;13.40;99.90;;;;;;5016436;28;20049;-75
2022/07/08 04:56:28;;;;;;;15.80;2.85;;;13.40;99.90;;;;;;5033896;28;20041;-73
2022/07/08 04:58:53;;;;;;;12.95;2.65;;;13.50;99.90;;;;;;5033029;28;20064;-75
2022/07/08 05:01:22;;;;;;;12.63;2.60;;;13.50;99.90;;;;;;5000060;28;20064;-76
2022/07/08 05:03:48;;;;;;;19.58;2.92;;;13.60;99.90;;;;;;5000065;28;20049;-75
2022/07/08 05:06:13;;;;;;;15.73;3.20;;;13.60;99.90;;;;;;5016395;28;20481;-74
2022/07/08 05:08:39;;;;;;;16.73;2.88;;;13.70;99.90;;;;;;5016173;28;20044;-74
2022/07/08 05:11:05;;;;;;;13.30;3.30;;;13.80;99.90;;;;;;5016486;28;20049;-73
2022/07/08 05:13:31;;;;;;;18.98;2.78;;;13.90;99.90;;;;;;5016362;28;20049;-75
2022/07/08 05:15:56;;;;;;;10.75;2.33;;;14.00;99.90;;;;;;5016518;28;20081;-76
2022/07/08 05:18:22;;;;;;;19.08;3.03;;;14.00;99.90;;;;;;5015975;28;20056;-74
2022/07/08 05:20:48;;;;;;;16.05;2.80;;;14.10;99.90;;;;;;5016804;28;20068;-75
2022/07/08 05:23:14;;;;;;;15.63;2.63;;;14.10;99.90;;;;;;5016055;28;20080;-74
2022/07/08 05:25:40;;;;;;;12.00;2.55;;;14.10;99.90;;;;;;5033235;28;20081;-76
2022/07/08 05:28:05;;;;;;;13.38;2.55;;;14.20;99.90;;;;;;5016100;28;20077;-75
2022/07/08 05:30:32;;;;;;;11.98;2.10;;;14.30;99.90;;;;;;5016077;28;20041;-75
2022/07/08 05:32:58;;;;;;;14.85;2.13;;;14.40;99.90;;;;;;5033545;28;20057;-75
2022/07/08 05:35:24;;;;;;;17.25;2.70;;;14.50;99.90;;;;;;4999826;28;20415;-76
2022/07/08 05:37:50;;;;;;;16.13;2.30;;;14.60;99.90;;;;;;5015875;28;20118;-76
2022/07/08 05:40:16;;;;;;;19.60;2.47;;;14.70;99.90;;;;;;5015789;28;20086;-75
2022/07/08 05:42:42;;;;;;;16.10;2.90;;;14.90;99.90;;;;;;5033337;28;20059;-76
2022/07/08 05:45:09;;;;;;;18.17;3.00;;;15.00;99.90;;;;;;5016398;28;20045;-75
2022/07/08 05:47:35;;;;;;;14.93;2.22;;;15.20;99.90;;;;;;5015667;28;20143;-76
2022/07/08 05:50:01;;;;;;;22.95;2.42;;;15.30;99.90;;;;;;5033516;28;20054;-75
2022/07/08 05:52:26;;;;;;;23.80;2.25;;;15.40;99.90;;;;;;5033061;28;20049;-76
2022/07/08 05:54:53;;;;;;;16.85;2.38;;;15.50;99.90;;;;;;5033290;28;20128;-74
2022/07/08 05:57:19;;;;;;;18.30;2.58;;;15.60;99.90;;;;;;5031736;28;20053;-75
2022/07/08 05:59:45;;;;;;;11.43;2.17;;;15.70;99.90;;;;;;5032960;28;20045;-75
2022/07/08 06:02:11;;;;;;;17.00;2.28;;;15.90;99.90;;;;;;5032931;28;20045;-75
2022/07/08 06:04:37;;;;;;;16.25;2.22;;;16.00;99.90;;;;;;4999279;28;20049;-74
2022/07/08 06:07:03;;;;;;;23.98;3.40;;;16.00;99.90;;;;;;5033671;28;20076;-75
2022/07/08 06:09:29;;;;;;;12.80;2.17;;;16.10;99.90;;;;;;5033191;28;20042;-75
2022/07/08 06:11:54;;;;;;;20.58;2.08;;;16.20;99.90;;;;;;5032940;28;20053;-75
2022/07/08 06:14:20;;;;;;;14.02;1.60;;;16.40;99.90;;;;;;4998850;28;20041;-77
2022/07/08 06:16:48;;;;;;;19.58;2.30;;;16.40;99.90;;;;;;5032948;28;20049;-74
2022/07/08 06:19:17;;;;;;;15.52;2.30;;;16.40;99.90;;;;;;5015212;28;20060;-75
2022/07/08 06:21:43;;;;;;;17.52;2.45;;;16.40;99.90;;;;;;5015559;28;20119;-75
2022/07/08 06:24:09;;;;;;;16.73;1.90;;;16.30;99.90;;;;;;4999038;28;20461;-75
2022/07/08 06:26:36;;;;;;;14.20;1.92;;;16.40;99.90;;;;;;5015484;28;20112;-74
2022/07/08 06:29:02;;;;;;;;;;;16.20;99.90;;;;;;4999769;28;20457;-74
2022/07/08 06:31:28;;;;;;;16.85;1.98;;;16.20;99.90;;;;;;5014562;28;19921;-76
2022/07/08 06:33:57;;;;;;;15.90;2.10;;;16.20;99.90;;;;;;4998712;28;20055;-74
2022/07/08 06:36:26;;;;;;;11.73;1.63;;;16.30;99.90;;;;;;5032698;28;20449;-74
2022/07/08 06:38:53;;;;;;;19.33;2.40;;;16.50;99.90;;;;;;4999234;28;20453;-77
2022/07/08 06:41:19;;;;;;;14.32;2.10;;;16.60;99.90;;;;;;5032594;28;20041;-75
2022/07/08 06:43:45;;;;;;;15.98;2.08;;;16.70;99.90;;;;;;5032585;28;20052;-78
2022/07/08 06:46:12;;;;;;;18.73;2.28;;;16.80;99.90;;;;;;5032510;28;20041;-75
2022/07/08 06:48:38;;;;;;;18.23;2.78;;;17.00;99.90;;;;;;4998851;28;20068;-73
2022/07/08 06:51:03;;;;;;;16.23;2.13;;;17.20;99.90;;;;;;4998918;28;20053;-75
2022/07/08 06:54:34;;;;;;;11.40;1.60;;;17.40;99.90;;;;;;4998611;28;20400;-76
2022/07/08 06:56:15;;;;;;;15.50;1.93;;;17.60;99.90;;;;;;5014918;28;20049;-74
2022/07/08 06:58:41;;;;;;;15.83;1.40;;;17.50;99.90;;;;;;4998428;28;20448;-74
2022/07/08 07:01:07;;;;;;;12.50;1.73;;;17.60;99.90;;;;;;5032278;28;20046;-76
2022/07/08 07:03:33;;;;;;;19.73;2.58;;;17.70;99.90;;;;;;5015683;28;20088;-87
2022/07/08 07:05:58;;;;;;;21.95;2.08;;;17.50;99.90;;;;;;4999123;28;20041;-77
2022/07/08 07:08:24;;;;;;;15.67;2.57;;;17.50;99.90;;;;;;5014308;28;20075;-76
2022/07/08 07:10:50;;;;;;;14.20;1.90;;;17.50;99.90;;;;;;5014765;28;20049;-74
2022/07/08 07:13:15;;;;;;;19.00;2.43;;;17.70;99.90;;;;;;5014647;28;20053;-73
2022/07/08 07:15:42;;;;;;;23.23;2.03;;;17.70;99.90;;;;;;5015327;28;20055;-76
2022/07/08 07:18:08;;;;;;;15.60;1.77;;;17.80;99.90;;;;;;5014489;28;20139;-74
2022/07/08 07:20:34;;;;;;;15.70;2.20;;;17.40;99.90;;;;;;5014746;28;20050;-76
2022/07/08 07:23:00;;;;;;;15.40;1.92;;;17.50;99.90;;;;;;5015123;28;20049;-74
2022/07/08 07:25:26;;;;;;;13.47;1.73;;;17.70;99.90;;;;;;5014721;28;20447;-75
2022/07/08 07:27:52;;;;;;;12.30;1.73;;;17.90;99.90;;;;;;5014739;28;20388;-76
2022/07/08 07:30:20;;;;;;;12.53;1.60;;;18.10;99.90;;;;;;5014680;28;20053;-76
2022/07/08 07:32:46;;;;;;;13.70;1.55;;;18.10;99.90;;;;;;5014354;28;20045;-76
2022/07/08 07:35:11;;;;;;;10.27;1.60;;;18.10;99.90;;;;;;5032936;28;20409;-76
2022/07/08 07:37:39;;;;;;;16.67;1.83;;;18.40;99.90;;;;;;5014113;28;20045;-78
2022/07/08 07:40:06;;;;;;;17.75;1.70;;;18.60;99.90;;;;;;4998847;28;20137;-78
2022/07/08 07:42:32;;;;;;;16.92;2.58;;;18.70;99.90;;;;;;5015342;28;20041;-74
2022/07/08 07:44:57;;;;;;;13.00;1.70;;;18.80;99.90;;;;;;5032737;28;20145;-76
2022/07/08 07:47:23;;;;;;;15.20;1.80;;;18.90;99.90;;;;;;5017644;28;20397;-75
2022/07/08 07:49:50;;;;;;;15.13;2.23;;;19.10;99.90;;;;;;5037617;28;20405;-73
2022/07/08 07:52:16;;;;;;;12.02;1.65;;;19.10;99.90;;;;;;5002662;28;20052;-76
2022/07/08 07:54:41;;;;;;;17.80;2.20;;;19.00;99.90;;;;;;5035714;28;20045;-76
2022/07/08 07:57:07;;;;;;;23.53;3.43;;;19.10;99.90;;;;;;5017691;28;20481;-76
2022/07/08 07:59:33;;;;;;;15.27;2.10;;;19.10;99.90;;;;;;5018307;28;20523;-77
2022/07/08 08:01:59;;;;;;;15.03;2.30;;;19.30;99.90;;;;;;5001845;28;20203;-74
2022/07/08 08:04:24;;;;;;;23.63;2.67;;;19.40;99.90;;;;;;5017950;28;20366;-76
2022/07/08 08:06:50;;;;;;;14.20;1.90;;;19.40;99.90;;;;;;5035364;28;20088;-75
2022/07/08 08:09:17;;;;;;;17.33;1.97;;;19.50;99.90;;;;;;5001606;28;20049;-74
2022/07/08 08:11:42;;;;;;;15.98;1.83;;;19.10;99.90;;;;;;5034174;28;20311;-75
2022/07/08 08:14:08;;;;;;;7.83;1.73;;;18.90;99.90;;;;;;5035516;28;20053;-74
2022/07/08 08:16:34;;;;;;;15.20;1.87;;;18.80;99.90;;;;;;5034946;28;20045;-75
2022/07/08 08:19:00;;;;;;;14.03;1.80;;;18.70;99.90;;;;;;4984745;28;20045;-75
2022/07/08 08:21:25;;;;;;;21.07;2.40;;;18.70;99.90;;;;;;5017421;28;20056;-75
2022/07/08 08:23:51;;;;;;;11.03;2.07;;;18.90;99.90;;;;;;5033805;28;20072;-75
2022/07/08 08:26:17;;;;;;;14.10;2.10;;;18.90;99.90;;;;;;5035298;28;20075;-76
2022/07/08 08:28:43;;;;;;;20.30;2.00;;;19.00;99.90;;;;;;5017091;28;20087;-75
2022/07/08 08:31:09;;;;;;;15.40;2.03;;;18.90;99.90;;;;;;5017438;28;20045;-76
2022/07/08 08:33:35;;;;;;;13.53;1.70;;;19.10;99.90;;;;;;5033981;28;20053;-76
2022/07/08 08:36:00;;;;;;;11.93;2.00;;;19.00;99.90;;;;;;5034924;28;20045;-79
2022/07/08 08:38:26;;;;;;;15.43;2.07;;;19.30;99.90;;;;;;5002467;28;20048;-76
2022/07/08 08:40:58;;;;;;;15.57;2.27;;;19.50;99.90;;;;;;5018237;28;20081;-76
2022/07/08 08:43:24;;;;;;;15.43;1.73;;;19.70;99.90;;;;;;5018871;28;20069;-74
2022/07/08 08:45:52;;;;;;;11.00;1.83;;;19.70;99.90;;;;;;5036801;28;20045;-75
2022/07/08 08:48:22;;;;;;;16.95;1.90;;;19.60;99.90;;;;;;5036408;28;20049;-76
2022/07/08 08:50:53;;;;;;;15.27;2.58;;;19.80;99.90;;;;;;5036019;28;20124;-77
2022/07/08 08:53:27;;;;;;;14.63;1.95;;;19.70;99.90;;;;;;5018433;28;20068;-76
2022/07/08 08:55:59;;;;;;;12.70;2.00;;;20.10;99.90;;;;;;5036345;28;20050;-78
2022/07/08 08:58:25;;;;;;;12.07;1.70;;;20.20;99.90;;;;;;5035274;28;20485;-76
2022/07/08 09:00:51;;;;;;;17.45;2.03;;;20.40;99.90;;;;;;5001539;28;20088;-75
2022/07/08 09:03:17;;;;;;;11.83;1.70;;;20.50;99.90;;;;;;5018009;28;20123;-77
2022/07/08 09:05:43;;;;;;;10.32;1.73;;;20.60;99.90;;;;;;5036474;28;20045;-74
2022/07/08 09:08:09;;;;;;;10.47;2.07;;;20.80;99.90;;;;;;5016831;28;20517;-75
2022/07/08 09:10:34;;;;;;;14.63;2.33;;;20.50;99.90;;;;;;5035149;28;20060;-74
2022/07/08 09:13:03;;;;;;;15.80;1.93;;;20.80;99.90;;;;;;5017271;28;20180;-75
2022/07/08 09:15:43;;;;;;;13.55;1.75;;;21.00;99.90;;;;;;5034997;28;20049;-74
2022/07/08 09:18:15;;;;;;;16.92;1.95;;;21.20;99.90;;;;;;5036456;28;20045;-75
2022/07/08 09:20:48;;;;;;;12.27;1.50;;;21.40;99.90;;;;;;5035379;28;20050;-76
2022/07/08 09:23:35;;;;;;;15.63;1.63;;;21.50;99.90;;;;;;5017741;28;20049;-75
2022/07/08 09:26:03;;;;;;;11.77;1.65;;;21.60;99.90;;;;;;5036817;28;20107;-76
2022/07/08 09:28:33;;;;;;;11.82;1.40;;;21.60;99.90;;;;;;5035149;28;20091;-74
2022/07/08 09:31:01;;;;;;;10.75;1.77;;;21.50;99.90;;;;;;5016642;28;20049;-80
2022/07/08 09:33:28;;;;;;;9.00;1.85;;;21.30;99.90;;;;;;5017303;28;20079;-75
2022/07/08 09:35:55;;;;;;;14.27;2.40;;;21.10;99.90;;;;;;5017553;28;20088;-76
2022/07/08 09:38:22;;;;;;;11.98;1.90;;;20.70;99.90;;;;;;5034637;28;20103;-75
2022/07/08 09:40:57;;;;;;;;;;;20.50;99.90;;;;;;5035787;28;20053;-77
2022/07/08 09:43:25;;;;;;;8.85;1.77;;;20.70;99.90;;;;;;5034800;28;19933;-77
2022/07/08 09:45:51;;;;;;;14.18;2.00;;;20.90;99.90;;;;;;5034683;28;20405;-77
2022/07/08 09:48:19;;;;;;;12.98;1.63;;;21.00;99.90;;;;;;5034976;28;20053;-76
2022/07/08 09:50:48;;;;;;;14.35;2.03;;;21.10;99.90;;;;;;5000900;28;20115;-75
2022/07/08 09:53:24;;;;;;;12.48;1.80;;;21.20;99.90;;;;;;5016394;28;20128;-76
2022/07/08 09:55:52;;;;;;;12.20;1.67;;;21.30;99.90;;;;;;4999915;28;20088;-73
2022/07/08 09:58:23;;;;;;;12.98;1.60;;;21.50;99.90;;;;;;4999565;28;20132;-74
2022/07/08 10:00:54;;;;;;;10.43;1.65;;;21.30;99.90;;;;;;5015539;28;20103;-75
2022/07/08 10:03:21;;;;;;;13.05;1.63;;;21.20;99.90;;;;;;5033589;28;20444;-74
2022/07/08 10:05:47;;;;;;;8.02;1.30;;;21.50;99.90;;;;;;5033331;28;20095;-74
2022/07/08 10:08:14;;;;;;;12.55;1.88;;;21.80;99.90;;;;;;5033191;28;20080;-74
2022/07/08 10:10:42;;;;;;;9.30;1.52;;;21.60;99.90;;;;;;4999188;28;20056;-76
2022/07/08 10:13:08;;;;;;;13.00;1.77;;;21.80;99.90;;;;;;5000466;28;20132;-77
2022/07/08 10:15:37;;;;;;;8.55;1.45;;;21.70;99.90;;;;;;5000185;28;20053;-75
2022/07/08 10:18:11;;;;;;;13.25;2.22;;;21.90;99.90;;;;;;5015134;28;20038;-75
2022/07/08 10:20:41;;;;;;;10.90;1.98;;;21.90;99.90;;;;;;5033571;28;20393;-77
2022/07/08 10:23:14;;;;;;;8.15;1.35;;;22.20;99.90;;;;;;4983964;28;20084;-75
2022/07/08 10:25:41;;;;;;;12.20;2.05;;;22.30;99.90;;;;;;5012669;28;20117;-75
2022/07/08 10:28:10;;;;;;;14.13;1.80;;;22.10;99.90;;;;;;5012175;28;20134;-74
2022/07/08 10:30:46;;;;;;;14.35;1.77;;;22.10;99.90;;;;;;4996382;28;20050;-74
2022/07/08 10:33:25;;;;;;;13.65;1.75;;;22.30;99.90;;;;;;5013206;28;20554;-75
2022/07/08 10:36:04;;;;;;;13.13;2.35;;;22.40;99.90;;;;;;5013413;28;20065;-76
2022/07/08 10:38:38;;;;;;;9.38;2.15;;;22.40;99.90;;;;;;5013802;28;20038;-76
2022/07/08 10:41:07;;;;;;;12.10;2.10;;;22.30;99.90;;;;;;5014212;28;20056;-77
2022/07/08 10:43:33;;;;;;;10.02;2.00;;;22.00;99.90;;;;;;5012007;28;20430;-75
2022/07/08 10:46:02;;;;;;;;;;;21.90;99.90;;;;;;4996512;28;20129;-85
2022/07/08 10:48:40;;;;;;;9.98;1.98;;;22.00;99.90;;;;;;5012890;28;19922;-76
2022/07/08 10:51:28;;;;;;;13.40;2.30;;;21.90;99.90;;;;;;5013299;28;20130;-76
2022/07/08 10:54:05;;;;;;;16.65;2.63;;;21.90;99.90;;;;;;5011864;28;20528;-76
2022/07/08 10:56:55;;;;;;;12.23;2.22;;;21.70;99.90;;;;;;5011779;28;20053;-76
2022/07/08 10:59:21;;;;;;;12.90;2.50;;;21.70;99.90;;;;;;5011922;28;20057;-76
2022/07/08 11:02:07;;;;;;;15.43;2.30;;;21.70;99.90;;;;;;5013598;28;20425;-73
2022/07/08 11:04:37;;;;;;;13.05;2.53;;;21.90;99.90;;;;;;5013842;28;20053;-76
2022/07/08 11:07:20;;;;;;;13.95;2.35;;;21.80;99.90;;;;;;5011413;28;20485;-76
2022/07/08 11:09:50;;;;;;;14.23;2.70;;;21.70;99.90;;;;;;4996375;28;20050;-76
2022/07/08 11:12:22;;;;;;;13.43;2.50;;;21.70;99.90;;;;;;5028375;28;20051;-76
2022/07/08 11:14:50;;;;;;;14.77;2.28;;;21.70;99.90;;;;;;5013054;28;20046;-76
2022/07/08 11:17:19;;;;;;;23.83;5.40;;;21.70;99.90;;;;;;5011603;28;20121;-76
2022/07/08 11:19:47;;;;;;;8.73;2.08;;;21.70;99.90;;;;;;5012772;28;20050;-76
2022/07/08 11:22:13;;;;;;;15.05;2.75;;;21.90;99.90;;;;;;5016875;28;20052;-75
2022/07/08 11:24:42;;;;;;;9.80;2.80;;;22.00;99.90;;;;;;5022552;28;20132;-75
2022/07/08 11:27:08;;;;;;;9.18;2.33;;;22.30;99.90;;;;;;5019597;28;20136;-76
2022/07/08 11:29:35;;;;;;;11.68;2.80;;;22.40;99.90;;;;;;5037625;28;20126;-76
2022/07/08 11:32:04;;;;;;;10.93;2.40;;;22.70;99.90;;;;;;5003868;28;20049;-76
2022/07/08 11:34:30;;;;;;;11.30;3.33;;;22.90;99.90;;;;;;5036123;28;20489;-76
2022/07/08 11:37:01;;;;;;;13.50;2.90;;;22.70;99.50;;;;;;5019039;28;20045;-75
2022/07/08 11:39:27;;;;;;;13.82;2.85;;;22.90;99.90;;;;;;5001969;28;20501;-76
2022/07/08 11:41:54;;;;;;;13.32;3.22;;;22.80;99.90;;;;;;5018561;28;20057;-75
2022/07/08 11:44:21;;;;;;;12.00;2.83;;;23.00;99.90;;;;;;5018403;28;20052;-76
2022/07/08 11:46:54;;;;;;;14.88;3.08;;;22.70;99.90;;;;;;5019034;28;20492;-75
2022/07/08 11:49:21;;;;;;;11.23;2.58;;;23.00;99.90;;;;;;5018633;28;20057;-74
2022/07/08 11:51:55;;;;;;;14.35;2.80;;;23.10;99.90;;;;;;5036710;28;20045;-75
2022/07/08 11:54:27;;;;;;;8.98;2.50;;;23.10;98.90;;;;;;5018437;28;20059;-74
2022/07/08 11:56:55;;;;;;;9.45;2.40;;;23.10;99.70;;;;;;5019247;28;20196;-76
2022/07/08 11:59:32;;;;;;;15.32;2.55;;;23.40;99.80;;;;;;5018449;28;20116;-76
2022/07/08 12:02:02;;;;;;;12.77;2.60;;;23.40;99.70;;;;;;5036393;28;20107;-75
2022/07/08 12:04:28;;;;;;;10.57;2.90;;;23.40;99.40;;;;;;5018414;28;20111;-76
2022/07/08 12:07:01;;;;;;;8.52;2.58;;;23.40;99.50;;;;;;5001755;28;20093;-74
2022/07/08 12:09:28;;;;;;;9.63;2.33;;;23.50;98.90;;;;;;5035799;28;20143;-76
2022/07/08 12:11:55;;;;;;;12.95;2.70;;;23.10;99.50;;;;;;5017945;28;20096;-76
2022/07/08 12:14:22;;;;;;;10.95;2.38;;;23.30;99.60;;;;;;5035189;28;20076;-75
2022/07/08 12:16:49;;;;;;;;;;;23.00;99.90;;;;;;5018377;28;20124;-76
2022/07/08 12:19:28;;;;;;;10.60;2.17;;;23.10;99.40;;;;;;5017583;28;19921;-76
2022/07/08 12:21:55;;;;;;;12.27;2.78;;;23.20;99.10;;;;;;5018562;28;20057;-75
2022/07/08 12:24:25;;;;;;;14.57;2.85;;;23.20;99.10;;;;;;5002109;28;20067;-78
2022/07/08 12:26:59;;;;;;;11.23;2.90;;;23.30;98.40;;;;;;5035982;28;20046;-75
2022/07/08 12:29:26;;;;;;;14.45;3.20;;;23.20;99.50;;;;;;5035616;28;20554;-76
2022/07/08 12:31:53;;;;;;;15.95;3.08;;;23.20;99.70;;;;;;5001224;28;20045;-74
2022/07/08 12:34:22;;;;;;;13.27;2.88;;;23.20;99.40;;;;;;5001510;28;20049;-76
2022/07/08 12:36:48;;;;;;;13.70;3.05;;;23.20;99.10;;;;;;5035927;28;20141;-76
2022/07/08 12:39:17;;;;;;;13.07;2.72;;;23.20;99.10;;;;;;5000608;28;20493;-77
2022/07/08 12:41:45;;;;;;;11.70;2.60;;;23.30;99.60;;;;;;5001039;28;20136;-76
2022/07/08 12:44:36;;;;;;;13.73;3.60;;;23.70;99.70;;;;;;5017855;28;20049;-75